Trans Sea — 9HA2564 — position and weather

sailwx.info

Track history (hours):
 
Tides and Currents Weather Stations Pressure Air Temp Water Temp Dewpoint Dewpoint Depression Visibility Wind Speed Wind Dir Waves Ship Positions

Trans Sea

Last reported at 2016-Oct-01 13:33 UTC. Time now 2016-Oct-01 13:48 UTC.
Position N 37°20' E 023°59'.

Length 107 m; draft 5.4 m.

Type: Ship (hazmat cat B). MMSI: 248887000.

Date/timePositionNaut miles runAvg speedWind from/ knotsBaromVisibWave heightAir tempDewpointWater temp
2016-Oct-01 13:33N 37°20' E 023°59'45812.0
2016-Sep-29 23:29N 36°20' E 014°32'2312.1
2016-Sep-29 21:33N 36°27' E 014°04'1312.2
2016-Sep-29 20:31N 36°31' E 013°49'  
2016-Sep-26 08:33N 36°21' W 008°32'7212.1
2016-Sep-26 02:33N 37°05' W 009°43'1413.8
2016-Sep-26 01:33N 37°18' W 009°47'1413.9
2016-Sep-26 00:33N 37°32' W 009°51'4214.0
2016-Sep-25 21:33N 38°13' W 010°04'5413.6
2016-Sep-25 17:33N 39°07' W 010°02'1413.8
2016-Sep-25 16:33N 39°19' W 009°54'1414.2
2016-Sep-25 15:33N 39°31' W 009°45'5 0.1
2016-Sep-24 00:33N 39°26' W 009°46'6312.7
2016-Sep-23 19:33N 38°23' W 009°45'2512.5
2016-Sep-23 17:33N 37°58' W 009°38'1412.8
2016-Sep-23 16:29N 37°45' W 009°35'41011.1
2016-Sep-22 03:32N 36°37' W 001°08'4113.4
2016-Sep-22 00:28N 36°46' W 000°18'1613.3
2016-Sep-21 23:17N 36°49' E 000°01'1013.5
2016-Sep-21 22:33N 36°51' E 000°13'4113.7
2016-Sep-21 19:33N 36°60' E 001°04'3913.2
2016-Sep-21 16:33N 37°08' E 001°52'  
Track history (hours):
 
Tides and Currents Weather Stations Pressure Air Temp Water Temp Dewpoint Dewpoint Depression Visibility Wind Speed Wind Dir Waves Ship Positions

Trans Sea

Last reported at 2016-Oct-01 13:33 UTC. Time now 2016-Oct-01 13:48 UTC.
Position N 37°20' E 023°59'.

Length 107 m; draft 5.4 m.

Type: Ship (hazmat cat B). MMSI: 248887000.

Date/timePositionNaut miles runAvg speedWind from/ knotsBaromVisibWave heightAir tempDewpointWater temp
2016-Oct-01 13:33N 37°20' E 023°59'45812.0
2016-Sep-29 23:29N 36°20' E 014°32'2312.1
2016-Sep-29 21:33N 36°27' E 014°04'1312.2
2016-Sep-29 20:31N 36°31' E 013°49'  
2016-Sep-26 08:33N 36°21' W 008°32'7212.1
2016-Sep-26 02:33N 37°05' W 009°43'1413.8
2016-Sep-26 01:33N 37°18' W 009°47'1413.9
2016-Sep-26 00:33N 37°32' W 009°51'4214.0
2016-Sep-25 21:33N 38°13' W 010°04'5413.6
2016-Sep-25 17:33N 39°07' W 010°02'1413.8
2016-Sep-25 16:33N 39°19' W 009°54'1414.2
2016-Sep-25 15:33N 39°31' W 009°45'5 0.1
2016-Sep-24 00:33N 39°26' W 009°46'6312.7
2016-Sep-23 19:33N 38°23' W 009°45'2512.5
2016-Sep-23 17:33N 37°58' W 009°38'1412.8
2016-Sep-23 16:29N 37°45' W 009°35'41011.1
2016-Sep-22 03:32N 36°37' W 001°08'4113.4
2016-Sep-22 00:28N 36°46' W 000°18'1613.3
2016-Sep-21 23:17N 36°49' E 000°01'1013.5
2016-Sep-21 22:33N 36°51' E 000°13'4113.7
2016-Sep-21 19:33N 36°60' E 001°04'3913.2
2016-Sep-21 16:33N 37°08' E 001°52'  

Dump ship's entire track history